Terminal Aerodrome Forecast
Issued by NWS

Home | Current Version | Previous Version | Text Only | Print | Product List | Glossary On
Versions: 1 2 3 4 5 6 7 8 9 10 11 12 13
000
FTUS46 KSGX 230520
TAFONT
TAF
KONT 230520Z 2306/2412 26007KT P6SM SKC
     FM230900 VRB04KT 2SM BR BKN005
     FM231600 VRB04KT 5SM HZ SCT006
     FM232000 26012G18KT P6SM SKC
     FM240500 26007KT P6SM SKC=

USA.gov is the U.S. government's official web portal to all federal, state and local government web resources and services.